sensor_id;sensor_type;location;lat;lon;timestamp;P1;durP1;ratioP1;P2;durP2;ratioP2
78672;SDS011;67988;60.086;30.354;2023-03-23T00:01:47;12.38;;;7.35;;
78672;SDS011;67988;60.086;30.354;2023-03-23T00:04:15;13.13;;;8.82;;
78672;SDS011;67988;60.086;30.354;2023-03-23T00:06:42;13.93;;;8.05;;
78672;SDS011;67988;60.086;30.354;2023-03-23T00:09:12;11.32;;;6.75;;
78672;SDS011;67988;60.086;30.354;2023-03-23T00:11:40;11.10;;;7.85;;
78672;SDS011;67988;60.086;30.354;2023-03-23T00:14:08;12.88;;;8.40;;
78672;SDS011;67988;60.086;30.354;2023-03-23T00:16:38;12.07;;;8.10;;
78672;SDS011;67988;60.086;30.354;2023-03-23T00:19:09;11.60;;;8.32;;
78672;SDS011;67988;60.086;30.354;2023-03-23T00:21:39;10.07;;;7.68;;
78672;SDS011;67988;60.086;30.354;2023-03-23T00:24:08;12.23;;;7.53;;
78672;SDS011;67988;60.086;30.354;2023-03-23T00:26:38;14.95;;;8.13;;
78672;SDS011;67988;60.086;30.354;2023-03-23T00:29:07;14.55;;;9.32;;
78672;SDS011;67988;60.086;30.354;2023-03-23T00:31:40;11.57;;;7.00;;
78672;SDS011;67988;60.086;30.354;2023-03-23T00:34:12;10.98;;;6.78;;
78672;SDS011;67988;60.086;30.354;2023-03-23T00:36:43;13.52;;;7.68;;
78672;SDS011;67988;60.086;30.354;2023-03-23T00:39:11;13.68;;;7.90;;
78672;SDS011;67988;60.086;30.354;2023-03-23T00:41:42;12.55;;;8.90;;
78672;SDS011;67988;60.086;30.354;2023-03-23T00:44:10;13.57;;;9.73;;
78672;SDS011;67988;60.086;30.354;2023-03-23T00:46:41;12.88;;;8.50;;
78672;SDS011;67988;60.086;30.354;2023-03-23T00:49:10;11.18;;;7.97;;
78672;SDS011;67988;60.086;30.354;2023-03-23T00:51:38;14.70;;;7.85;;
78672;SDS011;67988;60.086;30.354;2023-03-23T00:54:06;13.30;;;7.25;;
78672;SDS011;67988;60.086;30.354;2023-03-23T00:56:34;10.85;;;6.72;;
78672;SDS011;67988;60.086;30.354;2023-03-23T00:59:03;15.27;;;8.38;;
78672;SDS011;67988;60.086;30.354;2023-03-23T01:01:30;10.82;;;6.97;;
78672;SDS011;67988;60.086;30.354;2023-03-23T01:03:57;11.82;;;7.35;;
78672;SDS011;67988;60.086;30.354;2023-03-23T01:06:26;10.48;;;8.02;;
78672;SDS011;67988;60.086;30.354;2023-03-23T01:08:56;13.35;;;7.88;;
78672;SDS011;67988;60.086;30.354;2023-03-23T01:13:51;7.90;;;5.80;;
78672;SDS011;67988;60.086;30.354;2023-03-23T01:16:20;10.05;;;7.32;;
78672;SDS011;67988;60.086;30.354;2023-03-23T01:18:47;8.57;;;4.53;;
78672;SDS011;67988;60.086;30.354;2023-03-23T01:21:15;9.77;;;7.50;;
78672;SDS011;67988;60.086;30.354;2023-03-23T01:23:44;8.27;;;6.35;;
78672;SDS011;67988;60.086;30.354;2023-03-23T01:26:11;8.27;;;6.22;;
78672;SDS011;67988;60.086;30.354;2023-03-23T01:28:40;7.40;;;5.65;;
78672;SDS011;67988;60.086;30.354;2023-03-23T01:31:08;8.57;;;5.57;;
78672;SDS011;67988;60.086;30.354;2023-03-23T01:33:39;7.88;;;6.05;;
78672;SDS011;67988;60.086;30.354;2023-03-23T01:36:07;8.82;;;5.82;;
78672;SDS011;67988;60.086;30.354;2023-03-23T01:38:37;7.95;;;6.32;;
78672;SDS011;67988;60.086;30.354;2023-03-23T01:41:04;9.27;;;6.85;;
78672;SDS011;67988;60.086;30.354;2023-03-23T01:43:32;9.13;;;6.45;;
78672;SDS011;67988;60.086;30.354;2023-03-23T01:45:59;9.02;;;6.53;;
78672;SDS011;67988;60.086;30.354;2023-03-23T01:48:26;11.23;;;6.72;;
78672;SDS011;67988;60.086;30.354;2023-03-23T01:50:58;8.02;;;6.15;;
78672;SDS011;67988;60.086;30.354;2023-03-23T01:53:30;7.35;;;5.13;;
78672;SDS011;67988;60.086;30.354;2023-03-23T01:56:03;7.72;;;5.10;;
78672;SDS011;67988;60.086;30.354;2023-03-23T01:58:31;7.88;;;6.13;;
78672;SDS011;67988;60.086;30.354;2023-03-23T02:01:01;10.30;;;6.43;;
78672;SDS011;67988;60.086;30.354;2023-03-23T02:03:31;8.30;;;5.90;;
78672;SDS011;67988;60.086;30.354;2023-03-23T02:06:02;7.80;;;5.43;;
78672;SDS011;67988;60.086;30.354;2023-03-23T02:08:36;9.10;;;6.10;;
78672;SDS011;67988;60.086;30.354;2023-03-23T02:11:11;7.95;;;5.82;;
78672;SDS011;67988;60.086;30.354;2023-03-23T02:13:40;7.80;;;5.22;;
78672;SDS011;67988;60.086;30.354;2023-03-23T02:16:09;9.00;;;6.13;;
78672;SDS011;67988;60.086;30.354;2023-03-23T02:18:47;6.47;;;5.07;;
78672;SDS011;67988;60.086;30.354;2023-03-23T02:21:33;6.88;;;6.18;;
78672;SDS011;67988;60.086;30.354;2023-03-23T02:24:23;7.75;;;6.22;;
78672;SDS011;67988;60.086;30.354;2023-03-23T02:27:10;7.18;;;4.50;;
78672;SDS011;67988;60.086;30.354;2023-03-23T02:29:52;7.82;;;6.50;;
78672;SDS011;67988;60.086;30.354;2023-03-23T02:32:36;10.25;;;6.25;;
78672;SDS011;67988;60.086;30.354;2023-03-23T02:35:28;7.32;;;4.95;;
78672;SDS011;67988;60.086;30.354;2023-03-23T02:38:01;8.18;;;5.35;;
78672;SDS011;67988;60.086;30.354;2023-03-23T02:40:33;9.27;;;6.00;;
78672;SDS011;67988;60.086;30.354;2023-03-23T02:43:06;8.57;;;6.05;;
78672;SDS011;67988;60.086;30.354;2023-03-23T02:45:35;8.85;;;6.30;;
78672;SDS011;67988;60.086;30.354;2023-03-23T02:48:04;9.15;;;6.63;;
78672;SDS011;67988;60.086;30.354;2023-03-23T02:50:35;8.65;;;5.70;;
78672;SDS011;67988;60.086;30.354;2023-03-23T02:53:05;7.82;;;6.07;;
78672;SDS011;67988;60.086;30.354;2023-03-23T02:55:37;8.60;;;5.70;;
78672;SDS011;67988;60.086;30.354;2023-03-23T02:58:11;10.10;;;6.32;;
78672;SDS011;67988;60.086;30.354;2023-03-23T03:00:41;8.45;;;5.45;;
78672;SDS011;67988;60.086;30.354;2023-03-23T03:03:11;7.53;;;5.43;;
78672;SDS011;67988;60.086;30.354;2023-03-23T03:05:46;7.53;;;5.60;;
78672;SDS011;67988;60.086;30.354;2023-03-23T03:08:25;7.00;;;5.65;;
78672;SDS011;67988;60.086;30.354;2023-03-23T03:10:58;6.22;;;5.50;;
78672;SDS011;67988;60.086;30.354;2023-03-23T03:13:32;7.15;;;5.88;;
78672;SDS011;67988;60.086;30.354;2023-03-23T03:16:07;6.00;;;4.85;;
78672;SDS011;67988;60.086;30.354;2023-03-23T03:18:42;6.55;;;4.85;;
78672;SDS011;67988;60.086;30.354;2023-03-23T03:21:14;7.65;;;6.50;;
78672;SDS011;67988;60.086;30.354;2023-03-23T03:23:46;5.85;;;5.15;;
78672;SDS011;67988;60.086;30.354;2023-03-23T03:26:16;6.75;;;5.55;;
78672;SDS011;67988;60.086;30.354;2023-03-23T03:28:53;5.93;;;4.85;;
78672;SDS011;67988;60.086;30.354;2023-03-23T03:31:22;7.28;;;5.63;;
78672;SDS011;67988;60.086;30.354;2023-03-23T03:33:53;6.72;;;5.82;;
78672;SDS011;67988;60.086;30.354;2023-03-23T03:36:24;4.85;;;4.35;;
78672;SDS011;67988;60.086;30.354;2023-03-23T03:39:01;6.45;;;5.22;;
78672;SDS011;67988;60.086;30.354;2023-03-23T03:41:33;5.28;;;4.78;;
78672;SDS011;67988;60.086;30.354;2023-03-23T03:46:28;7.45;;;4.85;;
78672;SDS011;67988;60.086;30.354;2023-03-23T03:48:56;5.38;;;3.85;;
78672;SDS011;67988;60.086;30.354;2023-03-23T03:51:25;6.13;;;4.20;;
78672;SDS011;67988;60.086;30.354;2023-03-23T03:53:54;5.30;;;4.78;;
78672;SDS011;67988;60.086;30.354;2023-03-23T03:56:22;5.40;;;3.78;;
78672;SDS011;67988;60.086;30.354;2023-03-23T03:59:02;5.28;;;4.30;;
78672;SDS011;67988;60.086;30.354;2023-03-23T04:01:45;5.22;;;4.70;;
78672;SDS011;67988;60.086;30.354;2023-03-23T04:04:12;7.05;;;6.35;;
78672;SDS011;67988;60.086;30.354;2023-03-23T04:06:40;4.65;;;3.75;;
78672;SDS011;67988;60.086;30.354;2023-03-23T04:09:07;6.10;;;5.20;;
78672;SDS011;67988;60.086;30.354;2023-03-23T04:11:35;4.93;;;4.43;;
78672;SDS011;67988;60.086;30.354;2023-03-23T04:14:25;4.32;;;3.85;;
78672;SDS011;67988;60.086;30.354;2023-03-23T04:16:53;7.13;;;5.35;;
78672;SDS011;67988;60.086;30.354;2023-03-23T04:19:23;8.45;;;4.57;;
78672;SDS011;67988;60.086;30.354;2023-03-23T04:21:51;5.88;;;3.20;;
78672;SDS011;67988;60.086;30.354;2023-03-23T04:24:18;5.22;;;4.70;;
78672;SDS011;67988;60.086;30.354;2023-03-23T04:26:46;8.07;;;5.35;;
78672;SDS011;67988;60.086;30.354;2023-03-23T04:29:22;6.60;;;4.57;;
78672;SDS011;67988;60.086;30.354;2023-03-23T04:32:09;5.47;;;4.55;;
78672;SDS011;67988;60.086;30.354;2023-03-23T04:34:41;6.82;;;3.78;;
78672;SDS011;67988;60.086;30.354;2023-03-23T04:37:10;6.65;;;5.60;;
78672;SDS011;67988;60.086;30.354;2023-03-23T04:39:38;4.78;;;4.25;;
78672;SDS011;67988;60.086;30.354;2023-03-23T04:42:07;5.80;;;5.10;;
78672;SDS011;67988;60.086;30.354;2023-03-23T04:44:43;6.75;;;5.32;;
78672;SDS011;67988;60.086;30.354;2023-03-23T04:47:19;5.93;;;4.35;;
78672;SDS011;67988;60.086;30.354;2023-03-23T04:49:53;7.18;;;4.47;;
78672;SDS011;67988;60.086;30.354;2023-03-23T04:52:31;6.85;;;5.40;;
78672;SDS011;67988;60.086;30.354;2023-03-23T04:55:02;6.25;;;5.57;;
78672;SDS011;67988;60.086;30.354;2023-03-23T04:57:29;6.05;;;5.20;;
78672;SDS011;67988;60.086;30.354;2023-03-23T05:00:32;8.90;;;5.13;;
78672;SDS011;67988;60.086;30.354;2023-03-23T05:03:01;7.90;;;7.10;;
78672;SDS011;67988;60.086;30.354;2023-03-23T05:05:30;6.68;;;5.63;;
78672;SDS011;67988;60.086;30.354;2023-03-23T05:08:05;7.40;;;5.78;;
78672;SDS011;67988;60.086;30.354;2023-03-23T05:10:35;8.02;;;4.78;;
78672;SDS011;67988;60.086;30.354;2023-03-23T05:13:07;6.97;;;5.03;;
78672;SDS011;67988;60.086;30.354;2023-03-23T05:15:34;7.13;;;5.40;;
78672;SDS011;67988;60.086;30.354;2023-03-23T05:18:03;7.53;;;4.85;;
78672;SDS011;67988;60.086;30.354;2023-03-23T05:20:32;7.63;;;6.45;;
78672;SDS011;67988;60.086;30.354;2023-03-23T05:23:06;7.97;;;5.78;;
78672;SDS011;67988;60.086;30.354;2023-03-23T05:25:35;7.55;;;6.30;;
78672;SDS011;67988;60.086;30.354;2023-03-23T05:28:13;8.57;;;6.90;;
78672;SDS011;67988;60.086;30.354;2023-03-23T05:30:50;7.65;;;6.95;;
78672;SDS011;67988;60.086;30.354;2023-03-23T05:33:18;7.32;;;4.88;;
78672;SDS011;67988;60.086;30.354;2023-03-23T05:36:11;9.10;;;5.00;;
78672;SDS011;67988;60.086;30.354;2023-03-23T05:38:59;5.88;;;4.88;;
78672;SDS011;67988;60.086;30.354;2023-03-23T05:41:43;6.38;;;4.97;;
78672;SDS011;67988;60.086;30.354;2023-03-23T05:44:13;4.50;;;3.90;;
78672;SDS011;67988;60.086;30.354;2023-03-23T05:46:50;6.30;;;4.75;;
78672;SDS011;67988;60.086;30.354;2023-03-23T05:49:17;5.20;;;4.28;;
78672;SDS011;67988;60.086;30.354;2023-03-23T05:51:45;9.88;;;5.90;;
78672;SDS011;67988;60.086;30.354;2023-03-23T05:54:15;7.95;;;5.18;;
78672;SDS011;67988;60.086;30.354;2023-03-23T05:56:44;6.13;;;4.68;;
78672;SDS011;67988;60.086;30.354;2023-03-23T05:59:28;6.53;;;5.03;;
78672;SDS011;67988;60.086;30.354;2023-03-23T06:01:57;7.45;;;5.10;;
78672;SDS011;67988;60.086;30.354;2023-03-23T06:04:25;11.77;;;5.78;;
78672;SDS011;67988;60.086;30.354;2023-03-23T06:07:15;6.55;;;5.65;;
78672;SDS011;67988;60.086;30.354;2023-03-23T06:09:52;5.72;;;4.45;;
78672;SDS011;67988;60.086;30.354;2023-03-23T06:12:39;7.00;;;3.33;;
78672;SDS011;67988;60.086;30.354;2023-03-23T06:15:29;4.18;;;3.35;;
78672;SDS011;67988;60.086;30.354;2023-03-23T06:18:09;8.23;;;4.10;;
78672;SDS011;67988;60.086;30.354;2023-03-23T06:21:01;5.03;;;3.58;;
78672;SDS011;67988;60.086;30.354;2023-03-23T06:23:45;5.13;;;4.63;;
78672;SDS011;67988;60.086;30.354;2023-03-23T06:26:16;5.20;;;4.00;;
78672;SDS011;67988;60.086;30.354;2023-03-23T06:28:55;4.68;;;3.75;;
78672;SDS011;67988;60.086;30.354;2023-03-23T06:31:23;3.15;;;2.30;;
78672;SDS011;67988;60.086;30.354;2023-03-23T06:33:51;4.00;;;3.50;;
78672;SDS011;67988;60.086;30.354;2023-03-23T06:36:24;4.35;;;3.95;;
78672;SDS011;67988;60.086;30.354;2023-03-23T06:39:10;5.43;;;4.00;;
78672;SDS011;67988;60.086;30.354;2023-03-23T06:41:57;4.00;;;3.58;;
78672;SDS011;67988;60.086;30.354;2023-03-23T06:44:28;3.53;;;3.25;;
78672;SDS011;67988;60.086;30.354;2023-03-23T06:46:56;4.82;;;3.42;;
78672;SDS011;67988;60.086;30.354;2023-03-23T06:49:33;4.55;;;3.70;;
78672;SDS011;67988;60.086;30.354;2023-03-23T06:52:18;4.70;;;4.30;;
78672;SDS011;67988;60.086;30.354;2023-03-23T06:54:46;4.70;;;4.20;;
78672;SDS011;67988;60.086;30.354;2023-03-23T06:57:14;3.83;;;3.38;;
78672;SDS011;67988;60.086;30.354;2023-03-23T06:59:44;3.70;;;3.40;;
78672;SDS011;67988;60.086;30.354;2023-03-23T07:04:40;4.10;;;3.70;;
78672;SDS011;67988;60.086;30.354;2023-03-23T07:07:14;6.95;;;3.53;;
78672;SDS011;67988;60.086;30.354;2023-03-23T07:10:04;3.38;;;3.08;;
78672;SDS011;67988;60.086;30.354;2023-03-23T07:12:34;4.70;;;3.58;;
78672;SDS011;67988;60.086;30.354;2023-03-23T07:15:04;6.13;;;4.80;;
78672;SDS011;67988;60.086;30.354;2023-03-23T07:17:33;4.90;;;3.25;;
78672;SDS011;67988;60.086;30.354;2023-03-23T07:20:16;5.50;;;2.47;;
78672;SDS011;67988;60.086;30.354;2023-03-23T07:22:44;3.05;;;2.67;;
78672;SDS011;67988;60.086;30.354;2023-03-23T07:25:21;5.30;;;3.42;;
78672;SDS011;67988;60.086;30.354;2023-03-23T07:27:53;3.25;;;2.60;;
78672;SDS011;67988;60.086;30.354;2023-03-23T07:30:20;5.00;;;3.25;;
78672;SDS011;67988;60.086;30.354;2023-03-23T07:32:47;4.95;;;3.28;;
78672;SDS011;67988;60.086;30.354;2023-03-23T07:35:15;6.10;;;3.85;;
78672;SDS011;67988;60.086;30.354;2023-03-23T07:37:50;4.70;;;3.58;;
78672;SDS011;67988;60.086;30.354;2023-03-23T07:40:18;2.58;;;1.38;;
78672;SDS011;67988;60.086;30.354;2023-03-23T07:42:53;3.47;;;2.90;;
78672;SDS011;67988;60.086;30.354;2023-03-23T07:45:35;4.20;;;2.65;;
78672;SDS011;67988;60.086;30.354;2023-03-23T07:48:02;3.90;;;2.33;;
78672;SDS011;67988;60.086;30.354;2023-03-23T07:50:30;6.78;;;2.60;;
78672;SDS011;67988;60.086;30.354;2023-03-23T07:52:58;3.80;;;2.50;;
78672;SDS011;67988;60.086;30.354;2023-03-23T07:55:29;3.28;;;2.97;;
78672;SDS011;67988;60.086;30.354;2023-03-23T07:58:32;2.95;;;2.33;;
78672;SDS011;67988;60.086;30.354;2023-03-23T08:01:00;2.70;;;2.15;;
78672;SDS011;67988;60.086;30.354;2023-03-23T08:03:30;2.72;;;1.10;;
78672;SDS011;67988;60.086;30.354;2023-03-23T08:06:31;5.20;;;2.58;;
78672;SDS011;67988;60.086;30.354;2023-03-23T08:09:19;3.08;;;2.33;;
78672;SDS011;67988;60.086;30.354;2023-03-23T08:12:15;4.05;;;3.47;;
78672;SDS011;67988;60.086;30.354;2023-03-23T08:17:50;4.68;;;2.75;;
78672;SDS011;67988;60.086;30.354;2023-03-23T08:20:36;3.03;;;2.72;;
78672;SDS011;67988;60.086;30.354;2023-03-23T08:23:14;2.92;;;2.67;;
78672;SDS011;67988;60.086;30.354;2023-03-23T08:25:59;3.78;;;2.90;;
78672;SDS011;67988;60.086;30.354;2023-03-23T08:28:44;4.72;;;2.88;;
78672;SDS011;67988;60.086;30.354;2023-03-23T08:31:44;3.45;;;2.70;;
78672;SDS011;67988;60.086;30.354;2023-03-23T08:34:30;2.80;;;2.25;;
78672;SDS011;67988;60.086;30.354;2023-03-23T08:37:00;4.93;;;2.67;;
78672;SDS011;67988;60.086;30.354;2023-03-23T08:39:50;3.45;;;3.13;;
78672;SDS011;67988;60.086;30.354;2023-03-23T08:42:26;3.40;;;1.45;;
78672;SDS011;67988;60.086;30.354;2023-03-23T08:45:16;3.28;;;2.75;;
78672;SDS011;67988;60.086;30.354;2023-03-23T08:48:02;4.35;;;3.25;;
78672;SDS011;67988;60.086;30.354;2023-03-23T08:50:32;2.65;;;2.35;;
78672;SDS011;67988;60.086;30.354;2023-03-23T08:53:00;3.25;;;2.38;;
78672;SDS011;67988;60.086;30.354;2023-03-23T08:55:51;2.83;;;2.50;;
78672;SDS011;67988;60.086;30.354;2023-03-23T08:58:41;3.13;;;2.58;;
78672;SDS011;67988;60.086;30.354;2023-03-23T09:01:29;4.22;;;3.83;;
78672;SDS011;67988;60.086;30.354;2023-03-23T09:04:23;3.58;;;2.72;;
78672;SDS011;67988;60.086;30.354;2023-03-23T09:09:41;3.58;;;3.20;;
78672;SDS011;67988;60.086;30.354;2023-03-23T09:12:09;3.88;;;2.45;;
78672;SDS011;67988;60.086;30.354;2023-03-23T09:14:36;4.07;;;2.70;;
78672;SDS011;67988;60.086;30.354;2023-03-23T09:17:03;2.63;;;2.42;;
78672;SDS011;67988;60.086;30.354;2023-03-23T09:19:33;4.18;;;3.78;;
78672;SDS011;67988;60.086;30.354;2023-03-23T09:22:01;5.07;;;3.10;;
78672;SDS011;67988;60.086;30.354;2023-03-23T09:24:29;2.78;;;2.47;;
78672;SDS011;67988;60.086;30.354;2023-03-23T09:26:56;3.88;;;3.15;;
78672;SDS011;67988;60.086;30.354;2023-03-23T09:29:23;4.43;;;2.25;;
78672;SDS011;67988;60.086;30.354;2023-03-23T09:31:51;5.50;;;3.30;;
78672;SDS011;67988;60.086;30.354;2023-03-23T09:34:19;3.60;;;3.28;;
78672;SDS011;67988;60.086;30.354;2023-03-23T09:36:47;3.80;;;2.47;;
78672;SDS011;67988;60.086;30.354;2023-03-23T09:39:14;4.85;;;3.17;;
78672;SDS011;67988;60.086;30.354;2023-03-23T09:44:19;3.30;;;1.83;;
78672;SDS011;67988;60.086;30.354;2023-03-23T09:49:24;4.15;;;3.83;;
78672;SDS011;67988;60.086;30.354;2023-03-23T09:51:56;5.43;;;3.45;;
78672;SDS011;67988;60.086;30.354;2023-03-23T09:54:25;3.40;;;2.10;;
78672;SDS011;67988;60.086;30.354;2023-03-23T09:56:54;4.38;;;1.95;;
78672;SDS011;67988;60.086;30.354;2023-03-23T09:59:24;3.03;;;2.35;;
78672;SDS011;67988;60.086;30.354;2023-03-23T10:01:57;4.38;;;2.92;;
78672;SDS011;67988;60.086;30.354;2023-03-23T10:04:32;3.00;;;2.70;;
78672;SDS011;67988;60.086;30.354;2023-03-23T10:09:36;3.17;;;2.58;;
78672;SDS011;67988;60.086;30.354;2023-03-23T10:12:05;4.65;;;3.92;;
78672;SDS011;67988;60.086;30.354;2023-03-23T10:14:45;3.58;;;2.88;;
78672;SDS011;67988;60.086;30.354;2023-03-23T10:17:19;3.58;;;2.70;;
78672;SDS011;67988;60.086;30.354;2023-03-23T10:19:51;3.95;;;2.15;;
78672;SDS011;67988;60.086;30.354;2023-03-23T10:22:23;3.85;;;2.45;;
78672;SDS011;67988;60.086;30.354;2023-03-23T10:24:57;5.05;;;3.10;;
78672;SDS011;67988;60.086;30.354;2023-03-23T10:27:31;3.53;;;2.13;;
78672;SDS011;67988;60.086;30.354;2023-03-23T10:30:02;2.42;;;1.70;;
78672;SDS011;67988;60.086;30.354;2023-03-23T10:32:42;3.25;;;2.95;;
78672;SDS011;67988;60.086;30.354;2023-03-23T10:35:15;2.85;;;2.50;;
78672;SDS011;67988;60.086;30.354;2023-03-23T10:37:48;5.93;;;3.42;;
78672;SDS011;67988;60.086;30.354;2023-03-23T10:40:19;3.83;;;2.80;;
78672;SDS011;67988;60.086;30.354;2023-03-23T10:42:50;12.98;;;3.13;;
78672;SDS011;67988;60.086;30.354;2023-03-23T10:45:20;5.35;;;3.70;;
78672;SDS011;67988;60.086;30.354;2023-03-23T10:47:51;5.60;;;3.72;;
78672;SDS011;67988;60.086;30.354;2023-03-23T10:50:22;4.70;;;2.80;;
78672;SDS011;67988;60.086;30.354;2023-03-23T10:52:54;7.53;;;3.83;;
78672;SDS011;67988;60.086;30.354;2023-03-23T10:55:24;4.10;;;3.45;;
78672;SDS011;67988;60.086;30.354;2023-03-23T10:58:02;6.78;;;4.07;;
78672;SDS011;67988;60.086;30.354;2023-03-23T11:00:30;5.60;;;2.88;;
78672;SDS011;67988;60.086;30.354;2023-03-23T11:02:58;4.47;;;3.22;;
78672;SDS011;67988;60.086;30.354;2023-03-23T11:05:31;4.55;;;3.00;;
78672;SDS011;67988;60.086;30.354;2023-03-23T11:08:03;7.88;;;3.00;;
78672;SDS011;67988;60.086;30.354;2023-03-23T11:10:38;3.58;;;2.80;;
78672;SDS011;67988;60.086;30.354;2023-03-23T11:13:09;5.57;;;3.00;;
78672;SDS011;67988;60.086;30.354;2023-03-23T11:15:39;9.52;;;4.47;;
78672;SDS011;67988;60.086;30.354;2023-03-23T11:18:10;4.68;;;3.88;;
78672;SDS011;67988;60.086;30.354;2023-03-23T11:20:40;5.45;;;3.50;;
78672;SDS011;67988;60.086;30.354;2023-03-23T11:23:15;5.40;;;4.00;;
78672;SDS011;67988;60.086;30.354;2023-03-23T11:25:57;3.35;;;2.85;;
78672;SDS011;67988;60.086;30.354;2023-03-23T11:28:27;6.13;;;3.17;;
78672;SDS011;67988;60.086;30.354;2023-03-23T11:30:58;6.68;;;4.53;;
78672;SDS011;67988;60.086;30.354;2023-03-23T11:33:30;4.85;;;4.22;;
78672;SDS011;67988;60.086;30.354;2023-03-23T11:36:04;8.00;;;3.85;;
78672;SDS011;67988;60.086;30.354;2023-03-23T11:38:34;6.30;;;3.88;;
78672;SDS011;67988;60.086;30.354;2023-03-23T11:41:08;6.07;;;4.07;;
78672;SDS011;67988;60.086;30.354;2023-03-23T11:46:09;6.30;;;3.35;;
78672;SDS011;67988;60.086;30.354;2023-03-23T11:48:43;4.53;;;2.92;;
78672;SDS011;67988;60.086;30.354;2023-03-23T11:51:18;6.55;;;3.58;;
78672;SDS011;67988;60.086;30.354;2023-03-23T11:53:54;4.43;;;3.22;;
78672;SDS011;67988;60.086;30.354;2023-03-23T11:56:26;3.88;;;2.72;;
78672;SDS011;67988;60.086;30.354;2023-03-23T11:58:57;4.70;;;2.85;;
78672;SDS011;67988;60.086;30.354;2023-03-23T12:01:35;5.88;;;3.20;;
78672;SDS011;67988;60.086;30.354;2023-03-23T12:04:19;5.82;;;3.28;;
78672;SDS011;67988;60.086;30.354;2023-03-23T12:07:15;4.38;;;3.38;;
78672;SDS011;67988;60.086;30.354;2023-03-23T12:09:58;3.72;;;2.75;;
78672;SDS011;67988;60.086;30.354;2023-03-23T12:12:33;3.45;;;2.85;;
78672;SDS011;67988;60.086;30.354;2023-03-23T12:15:09;4.45;;;3.38;;
78672;SDS011;67988;60.086;30.354;2023-03-23T12:17:45;6.20;;;4.07;;
78672;SDS011;67988;60.086;30.354;2023-03-23T12:20:20;6.32;;;2.47;;
78672;SDS011;67988;60.086;30.354;2023-03-23T12:23:00;5.07;;;3.35;;
78672;SDS011;67988;60.086;30.354;2023-03-23T12:25:46;3.83;;;2.55;;
78672;SDS011;67988;60.086;30.354;2023-03-23T12:28:30;5.82;;;2.17;;
78672;SDS011;67988;60.086;30.354;2023-03-23T12:31:07;2.70;;;2.25;;
78672;SDS011;67988;60.086;30.354;2023-03-23T12:33:45;7.18;;;2.53;;
78672;SDS011;67988;60.086;30.354;2023-03-23T12:36:26;5.60;;;2.08;;
78672;SDS011;67988;60.086;30.354;2023-03-23T12:39:08;4.28;;;2.42;;
78672;SDS011;67988;60.086;30.354;2023-03-23T12:41:47;3.65;;;1.38;;
78672;SDS011;67988;60.086;30.354;2023-03-23T12:44:21;6.80;;;2.25;;
78672;SDS011;67988;60.086;30.354;2023-03-23T12:47:06;5.05;;;1.50;;
78672;SDS011;67988;60.086;30.354;2023-03-23T12:49:46;1.83;;;1.15;;
78672;SDS011;67988;60.086;30.354;2023-03-23T12:52:18;4.15;;;1.63;;
78672;SDS011;67988;60.086;30.354;2023-03-23T12:54:48;1.80;;;1.42;;
78672;SDS011;67988;60.086;30.354;2023-03-23T12:57:26;20.90;;;4.22;;
78672;SDS011;67988;60.086;30.354;2023-03-23T12:59:59;3.75;;;2.40;;
78672;SDS011;67988;60.086;30.354;2023-03-23T13:02:38;2.63;;;1.67;;
78672;SDS011;67988;60.086;30.354;2023-03-23T13:05:09;2.38;;;1.30;;
78672;SDS011;67988;60.086;30.354;2023-03-23T13:07:54;3.20;;;1.77;;
78672;SDS011;67988;60.086;30.354;2023-03-23T13:10:26;4.60;;;1.90;;
78672;SDS011;67988;60.086;30.354;2023-03-23T13:12:57;3.85;;;1.00;;
78672;SDS011;67988;60.086;30.354;2023-03-23T13:15:29;2.75;;;2.20;;
78672;SDS011;67988;60.086;30.354;2023-03-23T13:18:07;2.28;;;1.88;;
78672;SDS011;67988;60.086;30.354;2023-03-23T13:20:40;4.32;;;2.53;;
78672;SDS011;67988;60.086;30.354;2023-03-23T13:23:23;5.05;;;2.83;;
78672;SDS011;67988;60.086;30.354;2023-03-23T13:25:54;5.85;;;1.73;;
78672;SDS011;67988;60.086;30.354;2023-03-23T13:28:27;3.25;;;2.35;;
78672;SDS011;67988;60.086;30.354;2023-03-23T13:30:58;3.10;;;1.73;;
78672;SDS011;67988;60.086;30.354;2023-03-23T13:33:31;9.57;;;3.58;;
78672;SDS011;67988;60.086;30.354;2023-03-23T13:36:05;8.20;;;3.63;;
78672;SDS011;67988;60.086;30.354;2023-03-23T13:38:35;5.95;;;2.28;;
78672;SDS011;67988;60.086;30.354;2023-03-23T13:41:07;4.95;;;2.38;;
78672;SDS011;67988;60.086;30.354;2023-03-23T13:43:38;7.45;;;2.47;;
78672;SDS011;67988;60.086;30.354;2023-03-23T13:46:07;2.05;;;1.88;;
78672;SDS011;67988;60.086;30.354;2023-03-23T13:48:41;7.68;;;2.22;;
78672;SDS011;67988;60.086;30.354;2023-03-23T13:51:27;3.85;;;2.35;;
78672;SDS011;67988;60.086;30.354;2023-03-23T13:56:48;15.05;;;3.13;;
78672;SDS011;67988;60.086;30.354;2023-03-23T13:59:45;2.55;;;1.63;;
78672;SDS011;67988;60.086;30.354;2023-03-23T14:05:26;5.25;;;2.40;;
78672;SDS011;67988;60.086;30.354;2023-03-23T14:07:59;5.80;;;2.60;;
78672;SDS011;67988;60.086;30.354;2023-03-23T14:10:36;4.97;;;2.25;;
78672;SDS011;67988;60.086;30.354;2023-03-23T14:13:09;3.30;;;2.28;;
78672;SDS011;67988;60.086;30.354;2023-03-23T14:15:53;2.13;;;1.80;;
78672;SDS011;67988;60.086;30.354;2023-03-23T14:18:23;3.38;;;2.38;;
78672;SDS011;67988;60.086;30.354;2023-03-23T14:20:54;5.28;;;2.05;;
78672;SDS011;67988;60.086;30.354;2023-03-23T14:23:22;5.75;;;1.75;;
78672;SDS011;67988;60.086;30.354;2023-03-23T14:25:56;5.07;;;2.22;;
78672;SDS011;67988;60.086;30.354;2023-03-23T14:28:31;6.25;;;2.40;;
78672;SDS011;67988;60.086;30.354;2023-03-23T14:31:00;3.25;;;1.85;;
78672;SDS011;67988;60.086;30.354;2023-03-23T14:33:28;3.15;;;2.35;;
78672;SDS011;67988;60.086;30.354;2023-03-23T14:35:57;4.85;;;2.20;;
78672;SDS011;67988;60.086;30.354;2023-03-23T14:38:25;5.20;;;2.95;;
78672;SDS011;67988;60.086;30.354;2023-03-23T14:41:00;5.38;;;2.85;;
78672;SDS011;67988;60.086;30.354;2023-03-23T14:43:29;4.22;;;2.65;;
78672;SDS011;67988;60.086;30.354;2023-03-23T14:46:01;3.05;;;2.20;;
78672;SDS011;67988;60.086;30.354;2023-03-23T14:51:01;4.63;;;2.28;;
78672;SDS011;67988;60.086;30.354;2023-03-23T14:53:33;4.45;;;2.30;;
78672;SDS011;67988;60.086;30.354;2023-03-23T14:56:04;3.47;;;2.28;;
78672;SDS011;67988;60.086;30.354;2023-03-23T14:58:37;2.67;;;2.08;;
78672;SDS011;67988;60.086;30.354;2023-03-23T15:01:06;2.80;;;2.47;;
78672;SDS011;67988;60.086;30.354;2023-03-23T15:03:35;6.22;;;3.03;;
78672;SDS011;67988;60.086;30.354;2023-03-23T15:06:11;6.00;;;2.00;;
78672;SDS011;67988;60.086;30.354;2023-03-23T15:08:41;3.47;;;2.03;;
78672;SDS011;67988;60.086;30.354;2023-03-23T15:11:11;5.00;;;1.95;;
78672;SDS011;67988;60.086;30.354;2023-03-23T15:13:42;6.32;;;3.17;;
78672;SDS011;67988;60.086;30.354;2023-03-23T15:16:14;3.78;;;2.33;;
78672;SDS011;67988;60.086;30.354;2023-03-23T15:18:47;2.85;;;2.10;;
78672;SDS011;67988;60.086;30.354;2023-03-23T15:21:20;10.48;;;2.17;;
78672;SDS011;67988;60.086;30.354;2023-03-23T15:23:51;10.20;;;3.58;;
78672;SDS011;67988;60.086;30.354;2023-03-23T15:26:22;4.30;;;2.90;;
78672;SDS011;67988;60.086;30.354;2023-03-23T15:29:00;2.80;;;2.30;;
78672;SDS011;67988;60.086;30.354;2023-03-23T15:31:29;4.50;;;2.67;;
78672;SDS011;67988;60.086;30.354;2023-03-23T15:33:57;8.18;;;2.15;;
78672;SDS011;67988;60.086;30.354;2023-03-23T15:36:30;5.70;;;3.05;;
78672;SDS011;67988;60.086;30.354;2023-03-23T15:38:59;2.53;;;2.03;;
78672;SDS011;67988;60.086;30.354;2023-03-23T15:41:27;2.25;;;2.05;;
78672;SDS011;67988;60.086;30.354;2023-03-23T15:44:08;3.38;;;1.60;;